createdAt,value
2018-11-02T00:01:26.857Z,11.24
2018-11-02T00:07:21.869Z,12.04
2018-11-02T00:13:16.842Z,11.3
2018-11-02T00:19:11.834Z,11.67
2018-11-02T00:25:06.857Z,11.42
2018-11-02T00:31:01.859Z,11.05
2018-11-02T00:36:56.885Z,9.56
2018-11-02T00:42:53.088Z,6.28
2018-11-02T00:48:46.853Z,7.52
2018-11-02T00:54:41.919Z,10.04
2018-11-02T01:00:36.875Z,8.75
2018-11-02T01:06:31.855Z,9.41
2018-11-02T01:12:26.879Z,9.1
2018-11-02T01:18:21.891Z,8.49
2018-11-02T01:24:16.898Z,8.71
2018-11-02T01:30:11.882Z,9.63
2018-11-02T01:36:06.912Z,10.78
2018-11-02T01:42:01.893Z,10.89
2018-11-02T01:47:56.889Z,11.99
2018-11-02T01:53:51.916Z,12.73
2018-11-02T01:59:46.907Z,12.77
2018-11-02T02:05:41.918Z,11.48
2018-11-02T02:11:36.901Z,11.71
2018-11-02T02:17:32.001Z,11.64
2018-11-02T02:23:26.904Z,13.2
2018-11-02T02:29:21.920Z,11.23
2018-11-02T02:35:16.934Z,8.93
2018-11-02T02:41:11.944Z,8.41
2018-11-02T02:47:06.935Z,8.92
2018-11-02T02:53:01.947Z,6.97
2018-11-02T02:58:57.055Z,5.51
2018-11-02T03:04:51.979Z,5.98
2018-11-02T03:10:47.111Z,5.43
2018-11-02T03:16:42.019Z,6.56
2018-11-02T03:22:36.975Z,5.96
2018-11-02T03:28:31.954Z,4.88
2018-11-02T03:34:26.962Z,6.36
2018-11-02T03:40:21.978Z,5.12
2018-11-02T03:46:16.959Z,4.78
2018-11-02T03:52:11.951Z,4.29
2018-11-02T03:58:06.957Z,2.52
2018-11-02T04:04:01.999Z,4.82
2018-11-02T04:09:56.983Z,3.67
2018-11-02T04:15:52.002Z,2.68
2018-11-02T04:21:46.976Z,1.5
2018-11-02T04:27:41.989Z,1.06
2018-11-02T04:33:36.988Z,0.94
2018-11-02T04:39:31.975Z,0.81
2018-11-02T04:45:27.010Z,1.47
2018-11-02T04:51:21.992Z,3.28
2018-11-02T04:57:17.042Z,3.47
2018-11-02T05:03:12.006Z,4.65
2018-11-02T05:09:06.997Z,5.55
2018-11-02T05:15:02.027Z,7.26
2018-11-02T05:20:57.038Z,6.92
2018-11-02T05:26:51.994Z,7.31
2018-11-02T05:32:47.019Z,7.76
2018-11-02T05:38:42.037Z,7.38
2018-11-02T05:44:37.033Z,8.23
2018-11-02T05:50:32.085Z,9.48
2018-11-02T05:56:27.066Z,8.03
2018-11-02T06:02:22.046Z,7.2
2018-11-02T06:08:17.118Z,7.37
2018-11-02T06:14:12.072Z,7.53
2018-11-02T06:20:07.032Z,8.86
2018-11-02T06:26:02.046Z,8.33
2018-11-02T06:31:57.085Z,8.86
2018-11-02T06:37:52.133Z,8.08
2018-11-02T06:43:47.055Z,10.32
2018-11-02T06:49:42.064Z,8.03
2018-11-02T06:55:37.063Z,6.04
2018-11-02T07:01:32.058Z,6.63
2018-11-02T07:07:27.234Z,6.31
2018-11-02T07:13:22.064Z,5.8
2018-11-02T07:19:17.091Z,6.43
2018-11-02T07:25:12.179Z,3.5
2018-11-02T07:31:07.071Z,1.96
2018-11-02T07:37:02.113Z,1.53
2018-11-02T07:42:57.114Z,1.03
2018-11-02T07:48:52.078Z,1.04
2018-11-02T07:54:47.079Z,1.48
2018-11-02T08:00:42.140Z,1.39
2018-11-02T08:06:37.100Z,1
2018-11-02T08:12:32.077Z,0.92
2018-11-02T08:18:27.102Z,0.85
2018-11-02T08:24:22.119Z,0.84
2018-11-02T08:30:17.152Z,0.86
2018-11-02T08:36:12.128Z,0.91
2018-11-02T08:42:07.116Z,2.61
2018-11-02T08:48:02.114Z,2.27
2018-11-02T08:53:57.135Z,2.9
2018-11-02T08:59:52.133Z,3.12
2018-11-02T09:05:47.165Z,2.87
2018-11-02T09:11:42.174Z,8.6
2018-11-02T09:17:37.158Z,3.85
2018-11-02T09:23:32.128Z,6.07
2018-11-02T09:29:27.139Z,12.06
2018-11-02T09:35:22.143Z,4.24
2018-11-02T09:41:17.157Z,1.95
2018-11-02T09:47:12.224Z,2.56
2018-11-02T09:53:07.191Z,2.57
2018-11-02T09:59:02.149Z,2.57
2018-11-02T10:04:57.161Z,4.34
2018-11-02T10:10:52.163Z,5.81
2018-11-02T10:16:47.153Z,2.87
2018-11-02T10:22:42.188Z,5.18
2018-11-02T10:28:37.200Z,3.38
2018-11-02T10:34:32.199Z,2.4
2018-11-02T10:40:27.177Z,2.4
2018-11-02T10:46:22.168Z,2.03
2018-11-02T10:52:17.175Z,1
2018-11-02T10:58:12.194Z,0.95
2018-11-02T11:04:07.181Z,1.36
2018-11-02T11:10:02.220Z,1.43
2018-11-02T11:15:57.201Z,1.17
2018-11-02T11:21:52.212Z,2.1
2018-11-02T11:27:47.211Z,1.3
2018-11-02T11:33:42.210Z,1.24
2018-11-02T11:39:37.273Z,1.2
2018-11-02T11:45:32.248Z,1.29
2018-11-02T11:51:27.212Z,1.4
2018-11-02T11:57:22.241Z,1.17
2018-11-02T12:03:17.261Z,1.4
2018-11-02T12:09:12.263Z,3.03
2018-11-02T12:15:07.238Z,1.94
2018-11-02T12:21:02.222Z,2.37
2018-11-02T12:26:57.223Z,1.09
2018-11-02T12:32:52.256Z,1.19
2018-11-02T12:38:47.270Z,3.39
2018-11-02T12:44:42.243Z,1.85
2018-11-02T12:50:37.337Z,1.12
2018-11-02T12:56:32.266Z,1.07
2018-11-02T13:02:27.267Z,0.79
2018-11-02T13:08:22.325Z,2.86
2018-11-02T13:14:17.276Z,1.11
2018-11-02T13:20:12.373Z,1.76
2018-11-02T13:26:07.530Z,4.59
2018-11-02T13:32:02.441Z,1.7
2018-11-02T13:37:57.299Z,1.06
2018-11-02T13:43:52.286Z,1.13
2018-11-02T13:49:47.284Z,1.07
2018-11-02T13:55:42.304Z,1.39
2018-11-02T14:01:37.295Z,1.11
2018-11-02T14:07:32.292Z,3.28
2018-11-02T14:13:27.284Z,2.85
2018-11-02T14:19:22.275Z,1.57
2018-11-02T14:25:17.333Z,1.1
2018-11-02T14:31:12.309Z,0.92
2018-11-02T14:37:07.306Z,1.56
2018-11-02T14:43:02.294Z,1.62
2018-11-02T14:48:57.295Z,1.86
2018-11-02T14:54:52.305Z,1.57
2018-11-02T15:00:47.431Z,0.78
2018-11-02T15:06:42.325Z,0.96
2018-11-02T15:12:37.335Z,0.92
2018-11-02T15:18:32.336Z,1.51
2018-11-02T15:24:27.349Z,2.94
2018-11-02T15:30:22.350Z,5.11
2018-11-02T15:36:17.328Z,2.27
2018-11-02T15:42:12.407Z,2.63
2018-11-02T15:48:07.333Z,2.66
2018-11-02T15:54:02.343Z,2.25
2018-11-02T15:59:57.356Z,1.96
2018-11-02T16:05:52.372Z,1.46
2018-11-02T16:11:47.350Z,0.99
2018-11-02T16:17:42.353Z,1.08
2018-11-02T16:23:37.348Z,1.33
2018-11-02T16:29:32.377Z,1.69
2018-11-02T16:35:27.378Z,1.26
2018-11-02T16:41:22.433Z,0.77
2018-11-02T16:47:17.375Z,0.88
2018-11-02T16:53:12.388Z,0.77
2018-11-02T16:59:07.392Z,0.94
2018-11-02T17:05:02.479Z,0.72
2018-11-02T17:10:57.380Z,0.77
2018-11-02T17:16:52.507Z,1.87
2018-11-02T17:22:47.380Z,1.13
2018-11-02T17:28:42.412Z,0.91
2018-11-02T17:34:37.414Z,0.91
2018-11-02T17:40:32.416Z,1
2018-11-02T17:46:27.391Z,1.03
2018-11-02T17:52:22.415Z,1.14
2018-11-02T17:58:17.397Z,0.89
2018-11-02T18:04:12.431Z,1.16
2018-11-02T18:10:07.412Z,1.23
2018-11-02T18:16:02.428Z,0.64
2018-11-02T18:21:57.435Z,0.71
2018-11-02T18:27:52.446Z,0.9
2018-11-02T18:33:47.451Z,1.26
2018-11-02T18:39:42.476Z,0.73
2018-11-02T18:45:37.419Z,0.8
2018-11-02T18:51:32.465Z,0.76
2018-11-02T18:57:27.445Z,1.68
2018-11-02T19:03:22.453Z,1.74
2018-11-02T19:09:17.490Z,2.92
2018-11-02T19:15:12.466Z,1.34
2018-11-02T19:21:07.498Z,4.17
2018-11-02T19:27:02.529Z,3.08
2018-11-02T19:32:57.468Z,2.44
2018-11-02T19:38:52.472Z,3.11
2018-11-02T19:44:47.483Z,4.9
2018-11-02T19:50:42.537Z,4.52
2018-11-02T19:56:37.470Z,1.76
2018-11-02T20:02:32.493Z,3.32
2018-11-02T20:08:27.502Z,4.71
2018-11-02T20:14:22.502Z,4.08
2018-11-02T20:20:17.529Z,4.21
2018-11-02T20:26:12.509Z,5.35
2018-11-02T20:32:07.566Z,5.03
2018-11-02T20:38:02.498Z,2.88
2018-11-02T20:43:57.497Z,4.27
2018-11-02T20:49:52.587Z,2.43
2018-11-02T20:55:47.562Z,2.61
2018-11-02T21:01:42.534Z,4.6
2018-11-02T21:07:37.504Z,5.03
2018-11-02T21:13:32.570Z,5.36
2018-11-02T21:19:27.530Z,5.9
2018-11-02T21:25:22.520Z,4.59
2018-11-02T21:31:17.563Z,4.24
2018-11-02T21:37:12.566Z,4.61
2018-11-02T21:43:07.525Z,4.34
2018-11-02T21:49:02.559Z,3.67
2018-11-02T21:54:57.573Z,3.63
2018-11-02T22:00:52.540Z,4.24
2018-11-02T22:06:47.569Z,4.1
2018-11-02T22:12:42.585Z,5.11
2018-11-02T22:18:37.677Z,5.17
2018-11-02T22:24:32.553Z,5.5
2018-11-02T22:30:27.591Z,5.49
2018-11-02T22:36:22.574Z,5.27
2018-11-02T22:42:17.581Z,5.47
2018-11-02T22:48:12.567Z,4.94
2018-11-02T22:54:07.650Z,4.54
2018-11-02T23:00:02.604Z,5.11
2018-11-02T23:05:57.622Z,4.93
2018-11-02T23:11:52.576Z,4.44
2018-11-02T23:17:47.626Z,4.98
2018-11-02T23:23:42.605Z,4.74
2018-11-02T23:29:37.662Z,5.82
2018-11-02T23:35:32.596Z,4.53
2018-11-02T23:41:27.662Z,4.4
2018-11-02T23:47:22.650Z,4.53
2018-11-02T23:53:17.616Z,4.98
2018-11-02T23:59:12.650Z,4.94
